Time;durP1;ratioP1;P1;durP2;ratioP2;P2;SDS_P1;SDS_P2;PMS_P1;PMS_P2;Temp;Humidity;BMP_temperature;BMP_pressure;BME280_temperature;BME280_humidity;BME280_pressure;Samples;Min_cycle;Max_cycle;Signal;HPM_P1;HPM_P2
2023/06/21 00:01:30;;;;;;;;;;;21.00;76.40;;;;;;5048212;28;903;-70
2023/06/21 00:03:57;;;;;;;;;;;21.00;76.40;;;;;;5044662;28;807;-70
2023/06/21 00:06:23;;;;;;;;;;;21.00;76.80;;;;;;5048772;28;1334;-68
2023/06/21 00:08:49;;;;;;;;;;;21.00;76.40;;;;;;5049372;28;1554;-68
2023/06/21 00:11:14;;;;;;;;;;;21.00;76.30;;;;;;5045102;28;816;-68
2023/06/21 00:13:40;;;;;;;;;;;21.00;76.40;;;;;;5038549;28;1010;-69
2023/06/21 00:16:05;;;;;;;;;;;21.00;76.40;;;;;;5049408;28;1217;-69
2023/06/21 00:18:31;;;;;;;;;;;21.00;76.30;;;;;;5049058;28;1890;-68
2023/06/21 00:20:59;;;;;;;;;;;21.00;76.40;;;;;;5046640;28;903;-68
2023/06/21 00:23:25;;;;;;;;;;;21.00;76.30;;;;;;5049390;28;837;-69
2023/06/21 00:25:50;;;;;;;;;;;21.00;76.30;;;;;;5048411;28;1422;-69
2023/06/21 00:28:16;;;;;;;;;;;21.00;76.30;;;;;;5046980;28;1353;-68
2023/06/21 00:30:41;;;;;;;;;;;21.00;76.20;;;;;;5043529;28;979;-68
2023/06/21 00:33:07;;;;;;;;;;;21.00;76.30;;;;;;5046166;28;892;-69
2023/06/21 00:35:32;;;;;;;;;;;21.00;76.30;;;;;;5049904;28;1268;-69
2023/06/21 00:37:58;;;;;;;;;;;21.00;76.30;;;;;;5050027;28;797;-68
2023/06/21 00:40:25;;;;;;;;;;;21.00;76.20;;;;;;5047287;28;1971;-69
2023/06/21 00:42:51;;;;;;;;;;;21.00;76.20;;;;;;5047423;28;1325;-69
2023/06/21 00:45:17;;;;;;;;;;;21.00;76.10;;;;;;5047548;28;1307;-68
2023/06/21 00:47:42;;;;;;;;;;;21.00;76.20;;;;;;5043905;28;1188;-69
2023/06/21 00:50:08;;;;;;;;;;;21.00;76.10;;;;;;5047739;28;839;-69
2023/06/21 00:52:34;;;;;;;;;;;21.00;76.10;;;;;;5046847;28;961;-69
2023/06/21 00:54:59;;;;;;;;;;;21.00;76.20;;;;;;5047325;28;1301;-68
2023/06/21 00:57:24;;;;;;;;;;;21.00;76.10;;;;;;5047608;28;864;-68
2023/06/21 00:59:50;;;;;;;;;;;20.90;76.00;;;;;;5043871;28;1910;-69
2023/06/21 01:02:15;;;;;;;;;;;21.00;76.20;;;;;;5045247;28;896;-69
2023/06/21 01:04:41;;;;;;;;;;;21.00;76.10;;;;;;5046222;28;1381;-69
2023/06/21 01:07:07;;;;;;;;;;;21.00;76.20;;;;;;5046643;28;1183;-69
2023/06/21 01:09:51;;;;;;;;;;;20.90;76.10;;;;;;5042427;28;885;-69
2023/06/21 01:12:35;;;;;;;;;;;21.00;76.10;;;;;;5044419;28;1005;-69
2023/06/21 01:15:02;;;;;;;;;;;21.00;76.00;;;;;;5046456;28;1309;-69
2023/06/21 01:17:28;;;;;;;;;;;21.00;76.10;;;;;;5044695;28;879;-69
2023/06/21 01:19:54;;;;;;;;;;;21.00;76.00;;;;;;5046982;28;1875;-68
2023/06/21 01:22:23;;;;;;;;;;;20.90;76.00;;;;;;5044543;28;911;-69
2023/06/21 01:24:51;;;;;;;;;;;20.90;76.00;;;;;;5036546;28;1379;-68
2023/06/21 01:27:27;;;;;;;;;;;20.90;76.00;;;;;;5046318;28;1445;-68
2023/06/21 01:29:55;;;;;;;;;;;20.90;75.90;;;;;;5046891;28;843;-68
2023/06/21 01:32:21;;;;;;;;;;;20.90;75.90;;;;;;5043401;28;844;-69
2023/06/21 01:34:46;;;;;;;;;;;20.90;76.00;;;;;;5046947;28;1321;-68
2023/06/21 01:37:12;;;;;;;;;;;21.00;75.90;;;;;;5047166;28;859;-68
2023/06/21 01:39:37;;;;;;;;;;;20.90;76.00;;;;;;5046673;28;1961;-69
2023/06/21 01:42:04;;;;;;;;;;;21.00;76.10;;;;;;5044951;28;1276;-68
2023/06/21 01:44:30;;;;;;;;;;;20.90;75.90;;;;;;5045686;28;1235;-69
2023/06/21 01:46:55;;;;;;;;;;;20.90;76.00;;;;;;5048075;28;882;-68
2023/06/21 01:49:21;;;;;;;;;;;21.00;76.00;;;;;;5045575;28;818;-69
2023/06/21 01:51:46;;;;;;;;;;;20.90;75.80;;;;;;5043764;28;947;-68
2023/06/21 01:54:12;;;;;;;;;;;21.00;76.00;;;;;;5046519;28;1020;-69
2023/06/21 01:56:38;;;;;;;;;;;20.90;75.80;;;;;;5046133;28;1212;-68
2023/06/21 01:59:03;;;;;;;;;;;20.90;75.90;;;;;;5049372;28;2080;-68
2023/06/21 02:01:30;;;;;;;;;;;20.90;75.90;;;;;;5048547;28;946;-69
2023/06/21 02:03:56;;;;;;;;;;;20.90;75.90;;;;;;5049749;28;832;-68
2023/06/21 02:06:24;;;;;;;;;;;20.90;75.80;;;;;;5050220;28;1264;-69
2023/06/21 02:08:50;;;;;;;;;;;20.90;75.90;;;;;;5050071;28;976;-69
2023/06/21 02:11:15;;;;;;;;;;;20.90;75.80;;;;;;5048632;28;1026;-68
2023/06/21 02:13:41;;;;;;;;;;;20.90;75.90;;;;;;5064738;28;1039;-69
2023/06/21 02:16:06;;;;;;;;;;;20.90;75.80;;;;;;5049776;28;1251;-69
2023/06/21 02:18:32;;;;;;;;;;;20.90;75.90;;;;;;5050661;28;1934;-69
2023/06/21 02:20:58;;;;;;;;;;;20.90;75.90;;;;;;5049236;28;892;-69
2023/06/21 02:23:24;;;;;;;;;;;20.90;75.90;;;;;;5047108;28;883;-69
2023/06/21 02:25:49;;;;;;;;;;;20.90;75.80;;;;;;5050766;28;1330;-68
2023/06/21 02:28:16;;;;;;;;;;;20.90;75.90;;;;;;5051621;28;1372;-68
2023/06/21 02:30:42;;;;;;;;;;;20.90;75.80;;;;;;5050300;28;895;-69
2023/06/21 02:33:07;;;;;;;;;;;20.90;75.80;;;;;;5048224;28;903;-68
2023/06/21 02:35:33;;;;;;;;;;;20.90;75.80;;;;;;5051778;28;1311;-68
2023/06/21 02:37:58;;;;;;;;;;;20.90;75.80;;;;;;5048652;28;1221;-68
2023/06/21 02:40:24;;;;;;;;;;;20.90;75.80;;;;;;5049430;28;1961;-68
2023/06/21 02:42:49;;;;;;;;;;;20.90;75.80;;;;;;5048563;28;1270;-68
2023/06/21 02:45:15;;;;;;;;;;;20.90;75.90;;;;;;5048576;28;1580;-68
2023/06/21 02:47:40;;;;;;;;;;;20.90;75.80;;;;;;5070341;28;1343;-68
2023/06/21 02:50:06;;;;;;;;;;;20.90;75.80;;;;;;5047316;28;788;-69
2023/06/21 02:52:31;;;;;;;;;;;20.90;75.70;;;;;;5026059;28;1313;-69
2023/06/21 02:54:57;;;;;;;;;;;20.90;75.70;;;;;;5049275;28;1322;-68
2023/06/21 02:57:22;;;;;;;;;;;20.90;75.80;;;;;;5049800;28;919;-69
2023/06/21 02:59:48;;;;;;;;;;;20.90;75.80;;;;;;5050933;28;1906;-69
2023/06/21 03:02:13;;;;;;;;;;;20.90;75.80;;;;;;5049276;28;964;-69
2023/06/21 03:04:39;;;;;;;;;;;20.90;75.70;;;;;;5050464;28;1203;-68
2023/06/21 03:07:05;;;;;;;;;;;20.90;75.60;;;;;;5050273;28;891;-68
2023/06/21 03:09:30;;;;;;;;;;;20.90;75.50;;;;;;5049540;28;948;-69
2023/06/21 03:11:56;;;;;;;;;;;20.90;75.50;;;;;;5048520;28;858;-69
2023/06/21 03:14:21;;;;;;;;;;;20.90;75.50;;;;;;5048344;28;1299;-68
2023/06/21 03:16:47;;;;;;;;;;;20.90;75.50;;;;;;5048015;28;1003;-67
2023/06/21 03:19:12;;;;;;;;;;;20.90;75.50;;;;;;5049219;28;1955;-68
2023/06/21 03:21:38;;;;;;;;;;;20.90;75.50;;;;;;5048485;28;1330;-70
2023/06/21 03:24:03;;;;;;;;;;;20.90;75.50;;;;;;5047319;28;1324;-70
2023/06/21 03:26:29;;;;;;;;;;;20.90;75.60;;;;;;5047151;28;1448;-69
2023/06/21 03:28:55;;;;;;;;;;;20.90;75.60;;;;;;5048106;28;1502;-68
2023/06/21 03:31:20;;;;;;;;;;;20.90;75.50;;;;;;5044982;28;1434;-68
2023/06/21 03:33:46;;;;;;;;;;;20.90;75.50;;;;;;5049396;28;1351;-69
2023/06/21 03:36:12;;;;;;;;;;;20.90;75.50;;;;;;5047419;28;1317;-72
2023/06/21 03:38:37;;;;;;;;;;;20.90;75.50;;;;;;5050001;28;1957;-68
2023/06/21 03:41:03;;;;;;;;;;;20.90;75.50;;;;;;5046612;28;1623;-70
2023/06/21 03:43:28;;;;;;;;;;;20.90;75.50;;;;;;5045896;28;1481;-69
2023/06/21 03:45:54;;;;;;;;;;;20.90;75.50;;;;;;5045118;28;1440;-70
2023/06/21 03:48:19;;;;;;;;;;;20.90;75.60;;;;;;5047855;28;1123;-68
2023/06/21 03:50:45;;;;;;;;;;;20.90;75.50;;;;;;5049479;28;993;-69
2023/06/21 03:53:10;;;;;;;;;;;20.90;75.60;;;;;;5048390;28;1642;-70
2023/06/21 03:55:37;;;;;;;;;;;20.90;75.60;;;;;;5048853;28;1476;-69
2023/06/21 03:58:02;;;;;;;;;;;20.90;75.60;;;;;;5047436;28;1734;-70
2023/06/21 04:00:28;;;;;;;;;;;20.90;75.60;;;;;;5047996;28;1902;-68
2023/06/21 04:02:53;;;;;;;;;;;20.90;75.60;;;;;;5048981;28;1049;-68
2023/06/21 04:05:19;;;;;;;;;;;20.90;75.60;;;;;;5044973;28;1243;-70
2023/06/21 04:07:46;;;;;;;;;;;20.90;75.60;;;;;;5048489;28;846;-69
2023/06/21 04:10:13;;;;;;;;;;;20.90;75.60;;;;;;5046065;28;888;-70
2023/06/21 04:12:39;;;;;;;;;;;20.90;75.60;;;;;;5049868;28;962;-70
2023/06/21 04:15:05;;;;;;;;;;;20.90;75.60;;;;;;5046920;28;1330;-70
2023/06/21 04:17:31;;;;;;;;;;;20.90;75.60;;;;;;5047745;28;855;-71
2023/06/21 04:19:56;;;;;;;;;;;20.90;75.70;;;;;;5048879;28;1965;-69
2023/06/21 04:22:23;;;;;;;;;;;20.90;75.60;;;;;;5049727;28;935;-69
2023/06/21 04:24:51;;;;;;;;;;;20.90;75.60;;;;;;5047819;28;1377;-68
2023/06/21 04:27:17;;;;;;;;;;;20.90;75.60;;;;;;5047718;28;1358;-70
2023/06/21 04:29:42;;;;;;;;;;;20.80;75.50;;;;;;5048137;28;896;-69
2023/06/21 04:32:08;;;;;;;;;;;20.80;75.50;;;;;;5046294;28;926;-70
2023/06/21 04:34:34;;;;;;;;;;;20.90;75.60;;;;;;5031793;28;1287;-68
2023/06/21 04:37:05;;;;;;;;;;;20.90;75.60;;;;;;5045883;28;900;-69
2023/06/21 04:39:30;;;;;;;;;;;20.80;75.50;;;;;;5026622;28;1985;-69
2023/06/21 04:41:58;;;;;;;;;;;20.90;75.60;;;;;;5043339;28;1408;-68
2023/06/21 04:44:23;;;;;;;;;;;20.80;75.50;;;;;;5046491;28;1256;-68
2023/06/21 04:46:49;;;;;;;;;;;20.90;75.60;;;;;;5046965;28;922;-70
2023/06/21 04:49:15;;;;;;;;;;;20.90;75.60;;;;;;5047736;28;833;-69
2023/06/21 04:51:43;;;;;;;;;;;20.90;75.50;;;;;;5049354;28;887;-69
2023/06/21 04:54:08;;;;;;;;;;;20.80;75.50;;;;;;5047522;28;1667;-69
2023/06/21 04:56:35;;;;;;;;;;;20.90;75.50;;;;;;5049075;28;1181;-69
2023/06/21 04:59:01;;;;;;;;;;;20.90;75.60;;;;;;5049324;28;1910;-69
2023/06/21 05:01:26;;;;;;;;;;;20.80;75.50;;;;;;5046510;28;1314;-70
2023/06/21 05:03:52;;;;;;;;;;;20.90;75.60;;;;;;5047811;28;812;-69
2023/06/21 05:06:20;;;;;;;;;;;20.90;75.50;;;;;;5047657;28;1357;-68
2023/06/21 05:08:46;;;;;;;;;;;20.90;75.60;;;;;;5046592;28;808;-69
2023/06/21 05:11:11;;;;;;;;;;;20.90;75.50;;;;;;5047545;28;958;-67
2023/06/21 05:13:36;;;;;;;;;;;20.90;75.60;;;;;;5047244;28;855;-70
2023/06/21 05:16:02;;;;;;;;;;;20.90;75.50;;;;;;5045521;28;1198;-70
2023/06/21 05:18:27;;;;;;;;;;;20.80;75.50;;;;;;5047444;28;1914;-69
2023/06/21 05:20:53;;;;;;;;;;;20.90;75.60;;;;;;5037387;28;1517;-68
2023/06/21 05:23:18;;;;;;;;;;;20.80;75.50;;;;;;5048288;28;1006;-68
2023/06/21 05:25:44;;;;;;;;;;;20.80;75.40;;;;;;5048211;28;1322;-67
2023/06/21 05:28:09;;;;;;;;;;;20.80;75.40;;;;;;5048677;28;1380;-68
2023/06/21 05:30:35;;;;;;;;;;;20.80;75.40;;;;;;5044451;28;926;-67
2023/06/21 05:33:00;;;;;;;;;;;20.90;75.50;;;;;;5051143;28;777;-68
2023/06/21 05:35:26;;;;;;;;;;;20.80;75.50;;;;;;5052664;28;1265;-67
2023/06/21 05:37:53;;;;;;;;;;;20.90;75.50;;;;;;5051735;28;986;-69
2023/06/21 05:40:18;;;;;;;;;;;20.90;75.50;;;;;;5051028;28;1957;-69
2023/06/21 05:42:44;;;;;;;;;;;20.80;75.40;;;;;;5049575;28;865;-69
2023/06/21 05:45:09;;;;;;;;;;;20.80;75.50;;;;;;5051113;28;1325;-69
2023/06/21 05:47:35;;;;;;;;;;;20.90;76.20;;;;;;5048737;28;1899;-67
2023/06/21 05:50:00;;;;;;;;;;;20.80;75.40;;;;;;5051192;28;948;-66
2023/06/21 05:52:26;;;;;;;;;;;20.80;76.20;;;;;;5046612;28;1310;-66
2023/06/21 05:54:51;;;;;;;;;;;20.80;75.40;;;;;;5050477;28;1216;-66
2023/06/21 05:57:17;;;;;;;;;;;20.80;75.50;;;;;;5047669;28;829;-66
2023/06/21 05:59:43;;;;;;;;;;;20.80;75.40;;;;;;5050370;28;1922;-66
2023/06/21 06:02:08;;;;;;;;;;;20.90;75.50;;;;;;5050803;28;853;-66
2023/06/21 06:04:34;;;;;;;;;;;20.90;75.50;;;;;;5052077;28;1235;-66
2023/06/21 06:06:59;;;;;;;;;;;20.90;75.50;;;;;;5050359;28;833;-66
2023/06/21 06:09:25;;;;;;;;;;;20.90;75.50;;;;;;5050823;28;888;-67
2023/06/21 06:11:50;;;;;;;;;;;20.80;75.40;;;;;;5045673;28;971;-67
2023/06/21 06:14:16;;;;;;;;;;;20.80;75.40;;;;;;5051116;28;1263;-67
2023/06/21 06:16:41;;;;;;;;;;;20.80;75.40;;;;;;5051534;28;876;-66
2023/06/21 06:19:07;;;;;;;;;;;20.80;75.40;;;;;;5051192;28;1953;-68
2023/06/21 06:21:32;;;;;;;;;;;20.80;75.40;;;;;;5051663;28;974;-66
2023/06/21 06:23:58;;;;;;;;;;;20.90;75.50;;;;;;5051805;28;833;-68
2023/06/21 06:26:24;;;;;;;;;;;20.80;75.40;;;;;;5050431;28;1235;-67
2023/06/21 06:28:49;;;;;;;;;;;20.90;75.50;;;;;;5049594;28;1407;-67
2023/06/21 06:31:17;;;;;;;;;;;20.80;75.40;;;;;;5050305;28;894;-67
2023/06/21 06:33:43;;;;;;;;;;;20.80;75.40;;;;;;5047615;28;956;-67
2023/06/21 06:36:08;;;;;;;;;;;20.90;75.40;;;;;;5051214;28;1260;-67
2023/06/21 06:38:34;;;;;;;;;;;20.80;76.10;;;;;;5049158;28;1969;-66
2023/06/21 06:40:59;;;;;;;;;;;20.80;75.40;;;;;;5036672;28;1548;-68
2023/06/21 06:43:25;;;;;;;;;;;20.80;75.40;;;;;;5045556;28;1731;-68
2023/06/21 06:45:50;;;;;;;;;;;20.80;75.40;;;;;;5050458;28;1342;-67
2023/06/21 06:48:15;;;;;;;;;;;20.80;75.30;;;;;;5049167;28;1306;-66
2023/06/21 06:50:42;;;;;;;;;;;20.80;75.40;;;;;;5050813;28;856;-65
2023/06/21 06:53:08;;;;;;;;;;;20.80;75.40;;;;;;5049906;28;1366;-65
2023/06/21 06:55:34;;;;;;;;;;;20.80;75.40;;;;;;5049046;28;1223;-65
2023/06/21 06:58:00;;;;;;;;;;;20.80;75.40;;;;;;5049319;28;792;-66
2023/06/21 07:00:25;;;;;;;;;;;20.80;75.40;;;;;;5048939;28;1906;-66
2023/06/21 07:02:56;;;;;;;;;;;20.80;75.40;;;;;;5049349;28;836;-66
2023/06/21 07:05:24;;;;;;;;;;;20.80;75.30;;;;;;5048699;28;1268;-66
2023/06/21 07:07:50;;;;;;;;;;;20.80;75.30;;;;;;5048802;28;846;-66
2023/06/21 07:10:16;;;;;;;;;;;20.80;75.30;;;;;;5050478;28;816;-67
2023/06/21 07:12:42;;;;;;;;;;;20.80;75.30;;;;;;5049220;28;1010;-66
2023/06/21 07:15:07;;;;;;;;;;;20.80;75.30;;;;;;5049444;28;1304;-66
2023/06/21 07:17:33;;;;;;;;;;;20.80;75.30;;;;;;5038083;28;943;-66
2023/06/21 07:19:58;;;;;;;;;;;20.80;75.30;;;;;;5049272;28;1898;-66
2023/06/21 07:22:24;;;;;;;;;;;20.80;75.30;;;;;;5048736;28;1034;-66
2023/06/21 07:24:49;;;;;;;;;;;20.80;75.30;;;;;;5047403;28;1331;-66
2023/06/21 07:27:14;;;;;;;;;;;20.80;75.30;;;;;;5049471;28;1472;-66
2023/06/21 07:29:40;;;;;;;;;;;20.80;75.30;;;;;;5048802;28;1037;-67
2023/06/21 07:32:05;;;;;;;;;;;20.80;75.30;;;;;;5046047;28;828;-67
2023/06/21 07:34:31;;;;;;;;;;;20.80;75.30;;;;;;5047152;28;1256;-66
2023/06/21 07:36:56;;;;;;;;;;;20.80;75.30;;;;;;5049976;28;883;-66
2023/06/21 07:39:22;;;;;;;;;;;20.80;75.30;;;;;;5049146;28;1898;-66
2023/06/21 07:41:47;;;;;;;;;;;20.80;75.30;;;;;;5048884;28;1347;-66
2023/06/21 07:44:13;;;;;;;;;;;20.80;75.30;;;;;;5046654;28;1011;-66
2023/06/21 07:46:38;;;;;;;;;;;20.80;75.30;;;;;;5048259;28;1287;-67
2023/06/21 07:49:04;;;;;;;;;;;20.80;75.20;;;;;;5046223;28;955;-67
2023/06/21 07:51:29;;;;;;;;;;;20.80;75.30;;;;;;5048850;28;867;-67
2023/06/21 07:53:55;;;;;;;;;;;20.80;76.00;;;;;;5046782;28;892;-67
2023/06/21 07:56:20;;;;;;;;;;;20.80;75.20;;;;;;5047619;28;1307;-66
2023/06/21 07:58:47;;;;;;;;;;;20.80;75.20;;;;;;5043398;28;1902;-66
2023/06/21 08:01:12;;;;;;;;;;;20.80;75.30;;;;;;5044125;28;792;-67
2023/06/21 08:03:39;;;;;;;;;;;20.80;75.30;;;;;;5041606;28;998;-67
2023/06/21 08:06:04;;;;;;;;;;;20.80;75.20;;;;;;5047738;28;2152;-67
2023/06/21 08:08:30;;;;;;;;;;;20.80;75.20;;;;;;5048285;28;2085;-67
2023/06/21 08:10:56;;;;;;;;;;;20.80;75.30;;;;;;5046526;28;1246;-67
2023/06/21 08:13:22;;;;;;;;;;;20.80;75.20;;;;;;5049246;28;889;-67
2023/06/21 08:15:48;;;;;;;;;;;20.80;75.20;;;;;;5047304;28;1375;-67
2023/06/21 08:18:13;;;;;;;;;;;20.80;75.20;;;;;;5049728;28;824;-66
2023/06/21 08:20:40;;;;;;;;;;;20.80;75.20;;;;;;5048529;28;1965;-67
2023/06/21 08:23:06;;;;;;;;;;;20.80;75.20;;;;;;5046598;28;890;-66
2023/06/21 08:25:32;;;;;;;;;;;20.80;75.20;;;;;;5047959;28;1270;-66
2023/06/21 08:27:57;;;;;;;;;;;20.80;75.20;;;;;;5049071;28;1524;-66
2023/06/21 08:30:23;;;;;;;;;;;20.80;75.20;;;;;;5045613;28;808;-67
2023/06/21 08:32:48;;;;;;;;;;;20.80;75.20;;;;;;5047568;28;1043;-67
2023/06/21 08:35:14;;;;;;;;;;;20.80;75.20;;;;;;5047647;28;1269;-67
2023/06/21 08:37:39;;;;;;;;;;;20.80;75.20;;;;;;5047377;28;812;-67
2023/06/21 08:40:05;;;;;;;;;;;20.80;75.20;;;;;;5040614;28;1985;-67
2023/06/21 08:42:30;;;;;;;;;;;20.80;75.20;;;;;;5051255;28;1274;-68
2023/06/21 08:44:56;;;;;;;;;;;20.80;75.20;;;;;;5049240;28;1271;-66
2023/06/21 08:47:22;;;;;;;;;;;20.80;75.10;;;;;;5049755;28;971;-66
2023/06/21 08:49:49;;;;;;;;;;;20.80;75.10;;;;;;5044711;28;828;-66
2023/06/21 08:52:17;;;;;;;;;;;20.80;75.10;;;;;;5043576;28;867;-66
2023/06/21 08:54:43;;;;;;;;;;;20.80;75.10;;;;;;5049343;28;1339;-67
2023/06/21 08:57:20;;;;;;;;;;;20.80;75.20;;;;;;5048576;28;908;-68
2023/06/21 08:59:47;;;;;;;;;;;20.80;75.10;;;;;;5049674;28;1972;-67
2023/06/21 09:02:19;;;;;;;;;;;20.80;75.10;;;;;;5042481;28;961;-67
2023/06/21 09:04:45;;;;;;;;;;;20.80;75.10;;;;;;5047918;28;1269;-67
2023/06/21 09:07:11;;;;;;;;;;;20.80;75.10;;;;;;5051049;28;836;-67
2023/06/21 09:09:36;;;;;;;;;;;20.80;75.10;;;;;;5052890;28;1932;-67
2023/06/21 09:12:02;;;;;;;;;;;20.80;75.10;;;;;;5051583;28;1250;-67
2023/06/21 09:14:31;;;;;;;;;;;20.80;75.10;;;;;;5050484;28;1292;-66
2023/06/21 09:16:58;;;;;;;;;;;20.80;75.10;;;;;;5050991;28;1288;-67
2023/06/21 09:19:23;;;;;;;;;;;20.80;75.10;;;;;;5048773;28;1976;-68
2023/06/21 09:21:49;;;;;;;;;;;20.80;75.10;;;;;;5051089;28;838;-67
2023/06/21 09:24:14;;;;;;;;;;;20.80;75.10;;;;;;5051296;28;824;-67
2023/06/21 09:26:40;;;;;;;;;;;20.80;75.10;;;;;;5052733;28;1268;-67
2023/06/21 09:29:05;;;;;;;;;;;20.80;75.10;;;;;;5043226;28;1125;-67
2023/06/21 09:31:31;;;;;;;;;;;20.80;75.10;;;;;;5050506;28;1035;-67
2023/06/21 09:33:57;;;;;;;;;;;20.80;75.10;;;;;;5050974;28;1318;-66
2023/06/21 09:36:23;;;;;;;;;;;20.80;75.10;;;;;;5047545;28;1472;-67
2023/06/21 09:38:48;;;;;;;;;;;20.80;75.10;;;;;;5052095;28;1922;-67
2023/06/21 09:41:14;;;;;;;;;;;20.80;75.10;;;;;;5048775;28;1332;-67
2023/06/21 09:43:40;;;;;;;;;;;20.80;75.10;;;;;;5042949;28;1410;-67
2023/06/21 09:46:07;;;;;;;;;;;20.80;75.10;;;;;;5051930;28;1369;-67
2023/06/21 09:48:36;;;;;;;;;;;20.80;75.10;;;;;;5042454;28;871;-68
2023/06/21 09:51:02;;;;;;;;;;;20.80;75.10;;;;;;5051135;28;1640;-68
2023/06/21 09:53:27;;;;;;;;;;;20.80;75.10;;;;;;5051686;28;1515;-67
2023/06/21 09:55:55;;;;;;;;;;;20.80;75.00;;;;;;5052180;28;1267;-67
2023/06/21 09:58:21;;;;;;;;;;;20.80;75.10;;;;;;5045791;28;813;-67
2023/06/21 10:00:46;;;;;;;;;;;20.80;75.00;;;;;;5048717;28;1913;-67
2023/06/21 10:03:12;;;;;;;;;;;20.80;75.10;;;;;;5049514;28;788;-68
2023/06/21 10:05:51;;;;;;;;;;;20.80;75.00;;;;;;5044769;28;1267;-68
2023/06/21 10:08:21;;;;;;;;;;;20.80;75.10;;;;;;5037694;28;908;-68
2023/06/21 10:10:46;;;;;;;;;;;20.80;75.10;;;;;;5051773;28;1088;-68
2023/06/21 10:13:12;;;;;;;;;;;20.80;75.00;;;;;;5048003;28;867;-68
2023/06/21 10:15:37;;;;;;;;;;;20.80;75.00;;;;;;5047801;28;1243;-68
2023/06/21 10:18:06;;;;;;;;;;;20.80;75.00;;;;;;5045242;28;811;-68
2023/06/21 10:20:31;;;;;;;;;;;20.80;75.00;;;;;;5037794;28;1918;-68
2023/06/21 10:22:57;;;;;;;;;;;20.80;75.00;;;;;;5050672;28;840;-68
2023/06/21 10:25:22;;;;;;;;;;;20.80;75.10;;;;;;5050492;28;1291;-68
2023/06/21 10:27:48;;;;;;;;;;;20.80;75.00;;;;;;5048908;28;1491;-68
2023/06/21 10:30:19;;;;;;;;;;;20.80;75.00;;;;;;5041456;28;886;-68
2023/06/21 10:32:44;;;;;;;;;;;20.80;75.00;;;;;;5051336;28;828;-68
2023/06/21 10:35:15;;;;;;;;;;;20.80;75.00;;;;;;5051458;28;1251;-68
2023/06/21 10:37:56;;;;;;;;;;;20.80;75.70;;;;;;5050832;28;902;-68
2023/06/21 10:40:21;;;;;;;;;;;20.80;75.00;;;;;;5048728;28;1946;-68
2023/06/21 10:42:47;;;;;;;;;;;20.80;75.20;;;;;;5046523;28;1032;-68
2023/06/21 10:45:12;;;;;;;;;;;20.80;75.20;;;;;;5048664;28;1263;-68
2023/06/21 10:47:38;;;;;;;;;;;20.80;75.10;;;;;;5046725;28;821;-68
2023/06/21 10:50:05;;;;;;;;;;;20.80;75.10;;;;;;5050432;28;880;-68
2023/06/21 10:52:30;;;;;;;;;;;20.80;75.10;;;;;;5048356;28;1034;-68
2023/06/21 10:54:57;;;;;;;;;;;20.80;75.10;;;;;;5048888;28;1256;-68
2023/06/21 10:57:27;;;;;;;;;;;20.80;75.00;;;;;;5033906;28;1244;-68
2023/06/21 10:59:53;;;;;;;;;;;20.80;75.10;;;;;;5050431;28;1975;-68
2023/06/21 11:02:19;;;;;;;;;;;20.80;75.00;;;;;;5044152;28;872;-68
2023/06/21 11:05:17;;;;;;;;;;;20.80;75.10;;;;;;5046988;28;1391;-67
2023/06/21 11:07:58;;;;;;;;;;;20.80;75.00;;;;;;5040133;28;1371;-68
2023/06/21 11:10:30;;;;;;;;;;;20.80;75.00;;;;;;5047054;28;1262;-67
2023/06/21 11:12:56;;;;;;;;;;;20.80;75.00;;;;;;5048298;28;889;-67
2023/06/21 11:15:22;;;;;;;;;;;20.80;75.00;;;;;;5049320;28;1182;-69
2023/06/21 11:17:54;;;;;;;;;;;20.80;75.00;;;;;;5044157;28;1372;-67
2023/06/21 11:20:23;;;;;;;;;;;20.80;75.00;;;;;;5045028;28;1961;-67
2023/06/21 11:22:55;;;;;;;;;;;20.80;75.00;;;;;;5047795;28;907;-68
2023/06/21 11:25:21;;;;;;;;;;;20.80;75.00;;;;;;5049821;28;1240;-67
2023/06/21 11:28:06;;;;;;;;;;;20.80;75.00;;;;;;5049436;28;950;-67
2023/06/21 11:30:32;;;;;;;;;;;20.80;75.00;;;;;;5048999;28;1099;-67
2023/06/21 11:32:57;;;;;;;;;;;20.80;75.00;;;;;;5049818;28;904;-67
2023/06/21 11:35:35;;;;;;;;;;;20.80;75.00;;;;;;5050603;28;1330;-68
2023/06/21 11:38:01;;;;;;;;;;;20.80;75.00;;;;;;5047082;28;820;-67
2023/06/21 11:40:27;;;;;;;;;;;20.80;75.00;;;;;;5046366;28;1915;-67
2023/06/21 11:42:52;;;;;;;;;;;20.80;75.00;;;;;;5046863;28;938;-67
2023/06/21 11:45:24;;;;;;;;;;;20.80;75.00;;;;;;5049094;28;1365;-67
2023/06/21 11:48:02;;;;;;;;;;;20.80;75.00;;;;;;5043173;28;880;-68
2023/06/21 11:50:44;;;;;;;;;;;20.80;75.00;;;;;;5048057;28;864;-68
2023/06/21 11:53:23;;;;;;;;;;;20.80;75.00;;;;;;5036823;28;926;-68
2023/06/21 11:56:19;;;;;;;;;;;20.80;75.00;;;;;;5046484;28;1270;-69
2023/06/21 11:58:48;;;;;;;;;;;20.80;75.00;;;;;;5048898;28;1979;-68
2023/06/21 12:01:13;;;;;;;;;;;20.80;75.00;;;;;;5041302;28;904;-67
2023/06/21 12:03:39;;;;;;;;;;;20.80;75.00;;;;;;5049355;28;915;-67
2023/06/21 12:06:04;;;;;;;;;;;20.80;75.00;;;;;;5045662;28;1276;-68
2023/06/21 12:08:36;;;;;;;;;;;20.80;75.00;;;;;;5043856;28;874;-68
2023/06/21 12:11:02;;;;;;;;;;;20.80;75.00;;;;;;5045813;28;814;-67
2023/06/21 12:13:28;;;;;;;;;;;20.80;75.00;;;;;;5048628;28;796;-67
2023/06/21 12:15:54;;;;;;;;;;;20.80;75.00;;;;;;5038064;28;1265;-68
2023/06/21 12:18:20;;;;;;;;;;;20.80;75.00;;;;;;5045826;28;814;-68
2023/06/21 12:20:45;;;;;;;;;;;20.80;74.90;;;;;;5046713;28;1992;-67
2023/06/21 12:23:11;;;;;;;;;;;20.80;75.00;;;;;;5048141;28;886;-68
2023/06/21 12:25:43;;;;;;;;;;;20.80;74.90;;;;;;5032711;28;1290;-68
2023/06/21 12:28:09;;;;;;;;;;;20.80;75.00;;;;;;5048930;28;1453;-67
2023/06/21 12:30:45;;;;;;;;;;;20.80;75.00;;;;;;5044087;28;818;-68
2023/06/21 12:33:10;;;;;;;;;;;20.80;74.90;;;;;;5048480;28;887;-67
2023/06/21 12:35:37;;;;;;;;;;;20.80;74.90;;;;;;5046825;28;1234;-68
2023/06/21 12:38:12;;;;;;;;;;;20.80;74.90;;;;;;5044370;28;819;-67
2023/06/21 12:40:40;;;;;;;;;;;20.80;74.90;;;;;;5051418;28;1898;-67
2023/06/21 12:43:06;;;;;;;;;;;20.80;74.90;;;;;;5049239;28;1326;-67
2023/06/21 12:45:31;;;;;;;;;;;20.80;74.90;;;;;;5046843;28;1243;-67
2023/06/21 12:47:57;;;;;;;;;;;20.80;74.90;;;;;;5046518;28;884;-67
2023/06/21 12:50:22;;;;;;;;;;;20.80;74.90;;;;;;5036841;28;1245;-67
2023/06/21 12:53:00;;;;;;;;;;;20.80;74.90;;;;;;5048947;28;852;-67
2023/06/21 12:55:26;;;;;;;;;;;20.80;74.90;;;;;;5046767;28;1287;-67
2023/06/21 12:57:51;;;;;;;;;;;20.80;74.90;;;;;;5047751;28;879;-67
2023/06/21 13:00:17;;;;;;;;;;;20.80;74.90;;;;;;5046043;28;1977;-67
2023/06/21 13:02:42;;;;;;;;;;;20.80;74.90;;;;;;5048705;28;855;-67
2023/06/21 13:05:08;;;;;;;;;;;20.80;74.90;;;;;;5049255;28;1267;-67
2023/06/21 13:07:33;;;;;;;;;;;20.80;74.90;;;;;;5049998;28;900;-67
2023/06/21 13:09:59;;;;;;;;;;;20.80;74.90;;;;;;5042551;28;927;-67
2023/06/21 13:12:25;;;;;;;;;;;20.80;74.90;;;;;;5048485;28;1520;-67
2023/06/21 13:14:51;;;;;;;;;;;20.80;74.90;;;;;;5047661;28;1224;-67
2023/06/21 13:17:17;;;;;;;;;;;20.80;74.90;;;;;;5043028;28;1326;-67
2023/06/21 13:19:42;;;;;;;;;;;20.80;74.90;;;;;;5047489;28;2053;-68
2023/06/21 13:22:08;;;;;;;;;;;20.80;74.90;;;;;;5046100;28;1600;-67
2023/06/21 13:24:33;;;;;;;;;;;20.80;74.90;;;;;;5049068;28;1244;-67
2023/06/21 13:27:01;;;;;;;;;;;20.80;74.90;;;;;;5047147;28;1392;-67
2023/06/21 13:29:26;;;;;;;;;;;20.80;74.90;;;;;;5047758;28;875;-66
2023/06/21 13:31:52;;;;;;;;;;;20.80;74.90;;;;;;5047711;28;800;-67
2023/06/21 13:34:17;;;;;;;;;;;20.80;74.90;;;;;;5048164;28;1264;-66
2023/06/21 13:36:43;;;;;;;;;;;20.80;74.80;;;;;;5048572;28;990;-67
2023/06/21 13:39:08;;;;;;;;;;;20.80;74.80;;;;;;5048062;28;1971;-67
2023/06/21 13:41:34;;;;;;;;;;;20.80;74.80;;;;;;5048822;28;1298;-67
2023/06/21 13:44:00;;;;;;;;;;;20.80;74.90;;;;;;5044609;28;2117;-67
2023/06/21 13:46:25;;;;;;;;;;;20.80;74.80;;;;;;5046941;28;1362;-67
2023/06/21 13:48:51;;;;;;;;;;;20.80;74.90;;;;;;5045669;28;1449;-67
2023/06/21 13:51:16;;;;;;;;;;;20.80;74.80;;;;;;5047692;28;1452;-67
2023/06/21 13:53:44;;;;;;;;;;;20.80;74.80;;;;;;5049529;28;867;-67
2023/06/21 13:56:09;;;;;;;;;;;20.80;74.80;;;;;;5049327;28;1328;-67
2023/06/21 13:58:35;;;;;;;;;;;20.80;74.80;;;;;;5047370;28;1902;-67
2023/06/21 14:01:01;;;;;;;;;;;20.80;74.80;;;;;;5051002;28;1025;-67
2023/06/21 14:03:26;;;;;;;;;;;20.80;74.80;;;;;;5047808;28;871;-67
2023/06/21 14:05:52;;;;;;;;;;;20.80;74.80;;;;;;5049282;28;1262;-67
2023/06/21 14:08:17;;;;;;;;;;;20.80;74.90;;;;;;5049766;28;886;-67
2023/06/21 14:10:44;;;;;;;;;;;20.80;74.80;;;;;;5047128;28;861;-67
2023/06/21 14:13:12;;;;;;;;;;;20.80;74.80;;;;;;5050496;28;852;-67
2023/06/21 14:15:37;;;;;;;;;;;20.80;74.80;;;;;;5051796;28;1251;-67
2023/06/21 14:18:03;;;;;;;;;;;20.80;74.80;;;;;;5051465;28;806;-67
2023/06/21 14:20:29;;;;;;;;;;;20.80;74.80;;;;;;5052433;28;1938;-67
2023/06/21 14:22:54;;;;;;;;;;;20.80;74.80;;;;;;5051877;28;828;-66
2023/06/21 14:25:20;;;;;;;;;;;20.80;74.80;;;;;;5049569;28;1287;-66
2023/06/21 14:27:47;;;;;;;;;;;20.80;74.80;;;;;;5051171;28;981;-67
2023/06/21 14:30:14;;;;;;;;;;;20.80;74.80;;;;;;5050203;28;1287;-67
2023/06/21 14:32:40;;;;;;;;;;;20.80;74.80;;;;;;5051557;28;831;-67